sensor_id;sensor_type;location;lat;lon;timestamp;P1;durP1;ratioP1;P2;durP2;ratioP2
62790;SDS011;48830;53.426;10.300;2022-07-09T00:01:54;15.10;;;4.47;;
62790;SDS011;48830;53.426;10.300;2022-07-09T00:04:19;14.25;;;4.00;;
62790;SDS011;48830;53.426;10.300;2022-07-09T00:06:44;15.18;;;4.30;;
62790;SDS011;48830;53.426;10.300;2022-07-09T00:09:10;13.75;;;3.97;;
62790;SDS011;48830;53.426;10.300;2022-07-09T00:11:35;13.75;;;4.25;;
62790;SDS011;48830;53.426;10.300;2022-07-09T00:14:01;11.57;;;4.22;;
62790;SDS011;48830;53.426;10.300;2022-07-09T00:16:27;13.63;;;4.47;;
62790;SDS011;48830;53.426;10.300;2022-07-09T00:18:52;10.48;;;4.38;;
62790;SDS011;48830;53.426;10.300;2022-07-09T00:21:17;12.65;;;4.43;;
62790;SDS011;48830;53.426;10.300;2022-07-09T00:23:43;11.38;;;4.00;;
62790;SDS011;48830;53.426;10.300;2022-07-09T00:26:08;10.70;;;4.10;;
62790;SDS011;48830;53.426;10.300;2022-07-09T00:28:34;14.43;;;4.45;;
62790;SDS011;48830;53.426;10.300;2022-07-09T00:30:59;13.43;;;4.35;;
62790;SDS011;48830;53.426;10.300;2022-07-09T00:33:25;11.20;;;4.50;;
62790;SDS011;48830;53.426;10.300;2022-07-09T00:35:50;12.18;;;3.67;;
62790;SDS011;48830;53.426;10.300;2022-07-09T00:38:16;12.70;;;3.15;;
62790;SDS011;48830;53.426;10.300;2022-07-09T00:40:41;12.18;;;3.90;;
62790;SDS011;48830;53.426;10.300;2022-07-09T00:43:19;15.50;;;3.70;;
62790;SDS011;48830;53.426;10.300;2022-07-09T00:45:46;9.52;;;3.85;;
62790;SDS011;48830;53.426;10.300;2022-07-09T00:48:13;11.65;;;4.05;;
62790;SDS011;48830;53.426;10.300;2022-07-09T00:50:39;12.13;;;4.22;;
62790;SDS011;48830;53.426;10.300;2022-07-09T00:53:07;8.15;;;3.90;;
62790;SDS011;48830;53.426;10.300;2022-07-09T00:55:36;13.18;;;4.45;;
62790;SDS011;48830;53.426;10.300;2022-07-09T00:58:02;12.05;;;4.68;;
62790;SDS011;48830;53.426;10.300;2022-07-09T01:00:29;11.45;;;4.22;;
62790;SDS011;48830;53.426;10.300;2022-07-09T01:02:55;12.38;;;4.35;;
62790;SDS011;48830;53.426;10.300;2022-07-09T01:05:20;11.80;;;4.18;;
62790;SDS011;48830;53.426;10.300;2022-07-09T01:07:46;15.13;;;4.50;;
62790;SDS011;48830;53.426;10.300;2022-07-09T01:10:12;14.43;;;4.28;;
62790;SDS011;48830;53.426;10.300;2022-07-09T01:12:37;10.93;;;4.32;;
62790;SDS011;48830;53.426;10.300;2022-07-09T01:15:03;12.68;;;4.30;;
62790;SDS011;48830;53.426;10.300;2022-07-09T01:17:40;10.20;;;4.65;;
62790;SDS011;48830;53.426;10.300;2022-07-09T01:20:06;14.40;;;4.40;;
62790;SDS011;48830;53.426;10.300;2022-07-09T01:22:33;12.23;;;4.75;;
62790;SDS011;48830;53.426;10.300;2022-07-09T01:25:00;11.00;;;4.05;;
62790;SDS011;48830;53.426;10.300;2022-07-09T01:27:25;13.77;;;4.30;;
62790;SDS011;48830;53.426;10.300;2022-07-09T01:29:51;13.20;;;4.40;;
62790;SDS011;48830;53.426;10.300;2022-07-09T01:32:16;10.27;;;4.63;;
62790;SDS011;48830;53.426;10.300;2022-07-09T01:34:42;13.65;;;4.43;;
62790;SDS011;48830;53.426;10.300;2022-07-09T01:37:08;14.13;;;4.28;;
62790;SDS011;48830;53.426;10.300;2022-07-09T01:39:33;12.43;;;4.70;;
62790;SDS011;48830;53.426;10.300;2022-07-09T01:41:59;11.13;;;4.18;;
62790;SDS011;48830;53.426;10.300;2022-07-09T01:44:24;11.40;;;4.38;;
62790;SDS011;48830;53.426;10.300;2022-07-09T01:46:50;11.45;;;4.07;;
62790;SDS011;48830;53.426;10.300;2022-07-09T01:49:15;11.23;;;4.40;;
62790;SDS011;48830;53.426;10.300;2022-07-09T01:51:41;17.48;;;4.32;;
62790;SDS011;48830;53.426;10.300;2022-07-09T01:54:06;12.55;;;3.97;;
62790;SDS011;48830;53.426;10.300;2022-07-09T01:56:32;11.25;;;4.47;;
62790;SDS011;48830;53.426;10.300;2022-07-09T01:58:58;9.40;;;4.45;;
62790;SDS011;48830;53.426;10.300;2022-07-09T02:01:24;11.90;;;4.38;;
62790;SDS011;48830;53.426;10.300;2022-07-09T02:03:49;11.25;;;4.18;;
62790;SDS011;48830;53.426;10.300;2022-07-09T02:06:15;13.90;;;3.88;;
62790;SDS011;48830;53.426;10.300;2022-07-09T02:08:41;16.23;;;4.20;;
62790;SDS011;48830;53.426;10.300;2022-07-09T02:11:06;15.02;;;4.80;;
62790;SDS011;48830;53.426;10.300;2022-07-09T02:13:32;12.40;;;4.30;;
62790;SDS011;48830;53.426;10.300;2022-07-09T02:15:57;12.98;;;4.63;;
62790;SDS011;48830;53.426;10.300;2022-07-09T02:18:25;13.73;;;4.10;;
62790;SDS011;48830;53.426;10.300;2022-07-09T02:20:50;11.73;;;3.75;;
62790;SDS011;48830;53.426;10.300;2022-07-09T02:23:16;11.80;;;3.90;;
62790;SDS011;48830;53.426;10.300;2022-07-09T02:25:41;14.35;;;4.30;;
62790;SDS011;48830;53.426;10.300;2022-07-09T02:28:07;12.25;;;4.03;;
62790;SDS011;48830;53.426;10.300;2022-07-09T02:30:32;9.93;;;4.10;;
62790;SDS011;48830;53.426;10.300;2022-07-09T02:32:59;11.80;;;4.22;;
62790;SDS011;48830;53.426;10.300;2022-07-09T02:35:24;13.10;;;4.10;;
62790;SDS011;48830;53.426;10.300;2022-07-09T02:37:50;12.65;;;4.30;;
62790;SDS011;48830;53.426;10.300;2022-07-09T02:40:15;12.98;;;4.38;;
62790;SDS011;48830;53.426;10.300;2022-07-09T02:42:41;9.43;;;4.32;;
62790;SDS011;48830;53.426;10.300;2022-07-09T02:45:06;12.25;;;4.00;;
62790;SDS011;48830;53.426;10.300;2022-07-09T02:47:32;15.70;;;4.55;;
62790;SDS011;48830;53.426;10.300;2022-07-09T02:49:58;10.55;;;4.07;;
62790;SDS011;48830;53.426;10.300;2022-07-09T02:52:23;9.75;;;4.13;;
62790;SDS011;48830;53.426;10.300;2022-07-09T02:54:48;9.27;;;4.10;;
62790;SDS011;48830;53.426;10.300;2022-07-09T02:57:14;15.15;;;4.32;;
62790;SDS011;48830;53.426;10.300;2022-07-09T02:59:39;10.93;;;3.95;;
62790;SDS011;48830;53.426;10.300;2022-07-09T03:02:05;14.60;;;4.63;;
62790;SDS011;48830;53.426;10.300;2022-07-09T03:04:30;9.80;;;3.75;;
62790;SDS011;48830;53.426;10.300;2022-07-09T03:06:56;11.68;;;4.10;;
62790;SDS011;48830;53.426;10.300;2022-07-09T03:09:21;10.95;;;4.20;;
62790;SDS011;48830;53.426;10.300;2022-07-09T03:11:47;12.32;;;4.68;;
62790;SDS011;48830;53.426;10.300;2022-07-09T03:14:12;11.60;;;4.57;;
62790;SDS011;48830;53.426;10.300;2022-07-09T03:16:38;12.73;;;4.20;;
62790;SDS011;48830;53.426;10.300;2022-07-09T03:19:03;12.95;;;4.50;;
62790;SDS011;48830;53.426;10.300;2022-07-09T03:21:29;13.30;;;4.60;;
62790;SDS011;48830;53.426;10.300;2022-07-09T03:23:54;11.20;;;4.20;;
62790;SDS011;48830;53.426;10.300;2022-07-09T03:26:20;13.13;;;4.60;;
62790;SDS011;48830;53.426;10.300;2022-07-09T03:28:45;12.57;;;4.30;;
62790;SDS011;48830;53.426;10.300;2022-07-09T03:31:10;14.68;;;4.45;;
62790;SDS011;48830;53.426;10.300;2022-07-09T03:33:36;15.23;;;4.47;;
62790;SDS011;48830;53.426;10.300;2022-07-09T03:36:02;9.57;;;4.07;;
62790;SDS011;48830;53.426;10.300;2022-07-09T03:38:28;11.07;;;4.43;;
62790;SDS011;48830;53.426;10.300;2022-07-09T03:40:54;8.70;;;4.10;;
62790;SDS011;48830;53.426;10.300;2022-07-09T03:43:19;8.65;;;4.00;;
62790;SDS011;48830;53.426;10.300;2022-07-09T03:45:45;13.15;;;4.53;;
62790;SDS011;48830;53.426;10.300;2022-07-09T03:48:10;14.63;;;4.63;;
62790;SDS011;48830;53.426;10.300;2022-07-09T03:50:36;12.85;;;4.68;;
62790;SDS011;48830;53.426;10.300;2022-07-09T03:53:01;13.55;;;4.53;;
62790;SDS011;48830;53.426;10.300;2022-07-09T03:55:27;13.75;;;5.13;;
62790;SDS011;48830;53.426;10.300;2022-07-09T03:57:52;11.32;;;4.75;;
62790;SDS011;48830;53.426;10.300;2022-07-09T04:00:17;11.43;;;4.60;;
62790;SDS011;48830;53.426;10.300;2022-07-09T04:02:43;12.50;;;5.03;;
62790;SDS011;48830;53.426;10.300;2022-07-09T04:05:09;14.20;;;5.32;;
62790;SDS011;48830;53.426;10.300;2022-07-09T04:07:34;11.77;;;5.50;;
62790;SDS011;48830;53.426;10.300;2022-07-09T04:10:00;18.25;;;5.88;;
62790;SDS011;48830;53.426;10.300;2022-07-09T04:12:26;17.67;;;5.50;;
62790;SDS011;48830;53.426;10.300;2022-07-09T04:14:51;12.65;;;4.97;;
62790;SDS011;48830;53.426;10.300;2022-07-09T04:17:17;13.38;;;5.43;;
62790;SDS011;48830;53.426;10.300;2022-07-09T04:19:42;14.63;;;5.40;;
62790;SDS011;48830;53.426;10.300;2022-07-09T04:22:08;11.57;;;5.10;;
62790;SDS011;48830;53.426;10.300;2022-07-09T04:24:33;11.60;;;5.10;;
62790;SDS011;48830;53.426;10.300;2022-07-09T04:26:59;13.85;;;5.18;;
62790;SDS011;48830;53.426;10.300;2022-07-09T04:29:24;9.52;;;4.70;;
62790;SDS011;48830;53.426;10.300;2022-07-09T04:31:49;11.00;;;5.32;;
62790;SDS011;48830;53.426;10.300;2022-07-09T04:34:15;11.93;;;4.75;;
62790;SDS011;48830;53.426;10.300;2022-07-09T04:36:41;11.48;;;4.50;;
62790;SDS011;48830;53.426;10.300;2022-07-09T04:39:06;11.77;;;4.78;;
62790;SDS011;48830;53.426;10.300;2022-07-09T04:41:31;9.43;;;4.55;;
62790;SDS011;48830;53.426;10.300;2022-07-09T04:43:57;11.57;;;4.40;;
62790;SDS011;48830;53.426;10.300;2022-07-09T04:46:23;12.13;;;4.45;;
62790;SDS011;48830;53.426;10.300;2022-07-09T04:48:50;14.32;;;4.80;;
62790;SDS011;48830;53.426;10.300;2022-07-09T04:51:15;9.57;;;4.22;;
62790;SDS011;48830;53.426;10.300;2022-07-09T04:53:41;11.13;;;4.43;;
62790;SDS011;48830;53.426;10.300;2022-07-09T04:56:06;13.93;;;4.80;;
62790;SDS011;48830;53.426;10.300;2022-07-09T04:58:32;11.55;;;4.93;;
62790;SDS011;48830;53.426;10.300;2022-07-09T05:00:58;8.95;;;4.47;;
62790;SDS011;48830;53.426;10.300;2022-07-09T05:03:24;9.13;;;4.13;;
62790;SDS011;48830;53.426;10.300;2022-07-09T05:05:50;11.43;;;4.43;;
62790;SDS011;48830;53.426;10.300;2022-07-09T05:08:17;14.50;;;5.05;;
62790;SDS011;48830;53.426;10.300;2022-07-09T05:10:44;10.95;;;4.63;;
62790;SDS011;48830;53.426;10.300;2022-07-09T05:13:09;11.73;;;4.82;;
62790;SDS011;48830;53.426;10.300;2022-07-09T05:15:35;11.13;;;4.03;;
62790;SDS011;48830;53.426;10.300;2022-07-09T05:18:00;13.27;;;4.70;;
62790;SDS011;48830;53.426;10.300;2022-07-09T05:20:26;13.18;;;4.60;;
62790;SDS011;48830;53.426;10.300;2022-07-09T05:22:52;12.63;;;5.00;;
62790;SDS011;48830;53.426;10.300;2022-07-09T05:25:18;13.13;;;4.55;;
62790;SDS011;48830;53.426;10.300;2022-07-09T05:27:44;9.73;;;4.07;;
62790;SDS011;48830;53.426;10.300;2022-07-09T05:30:11;9.93;;;3.97;;
62790;SDS011;48830;53.426;10.300;2022-07-09T05:32:41;11.63;;;4.35;;
62790;SDS011;48830;53.426;10.300;2022-07-09T05:35:07;13.48;;;4.60;;
62790;SDS011;48830;53.426;10.300;2022-07-09T05:37:33;9.13;;;4.05;;
62790;SDS011;48830;53.426;10.300;2022-07-09T05:39:59;13.25;;;4.53;;
62790;SDS011;48830;53.426;10.300;2022-07-09T05:42:30;9.18;;;4.45;;
62790;SDS011;48830;53.426;10.300;2022-07-09T05:44:57;7.88;;;3.72;;
62790;SDS011;48830;53.426;10.300;2022-07-09T05:47:24;7.53;;;3.45;;
62790;SDS011;48830;53.426;10.300;2022-07-09T05:49:49;8.63;;;3.75;;
62790;SDS011;48830;53.426;10.300;2022-07-09T05:52:15;9.40;;;3.83;;
62790;SDS011;48830;53.426;10.300;2022-07-09T05:54:40;10.05;;;4.03;;
62790;SDS011;48830;53.426;10.300;2022-07-09T05:57:05;7.25;;;3.30;;
62790;SDS011;48830;53.426;10.300;2022-07-09T05:59:31;10.05;;;3.88;;
62790;SDS011;48830;53.426;10.300;2022-07-09T06:01:56;9.57;;;3.63;;
62790;SDS011;48830;53.426;10.300;2022-07-09T06:04:22;11.05;;;3.60;;
62790;SDS011;48830;53.426;10.300;2022-07-09T06:06:47;10.45;;;3.97;;
62790;SDS011;48830;53.426;10.300;2022-07-09T06:09:13;9.52;;;3.60;;
62790;SDS011;48830;53.426;10.300;2022-07-09T06:11:38;11.05;;;3.78;;
62790;SDS011;48830;53.426;10.300;2022-07-09T06:14:04;7.75;;;3.38;;
62790;SDS011;48830;53.426;10.300;2022-07-09T06:16:29;8.60;;;3.53;;
62790;SDS011;48830;53.426;10.300;2022-07-09T06:18:55;9.82;;;3.72;;
62790;SDS011;48830;53.426;10.300;2022-07-09T06:21:20;9.43;;;3.45;;
62790;SDS011;48830;53.426;10.300;2022-07-09T06:23:46;8.00;;;3.30;;
62790;SDS011;48830;53.426;10.300;2022-07-09T06:26:11;8.30;;;3.42;;
62790;SDS011;48830;53.426;10.300;2022-07-09T06:28:37;6.45;;;3.15;;
62790;SDS011;48830;53.426;10.300;2022-07-09T06:31:03;7.70;;;3.78;;
62790;SDS011;48830;53.426;10.300;2022-07-09T06:33:28;8.73;;;3.70;;
62790;SDS011;48830;53.426;10.300;2022-07-09T06:35:54;7.22;;;4.05;;
62790;SDS011;48830;53.426;10.300;2022-07-09T06:38:19;8.80;;;3.85;;
62790;SDS011;48830;53.426;10.300;2022-07-09T06:40:45;9.68;;;3.80;;
62790;SDS011;48830;53.426;10.300;2022-07-09T06:43:10;10.70;;;4.05;;
62790;SDS011;48830;53.426;10.300;2022-07-09T06:45:43;7.93;;;3.60;;
62790;SDS011;48830;53.426;10.300;2022-07-09T06:48:09;9.02;;;4.05;;
62790;SDS011;48830;53.426;10.300;2022-07-09T06:50:34;8.15;;;3.55;;
62790;SDS011;48830;53.426;10.300;2022-07-09T06:53:00;8.35;;;4.22;;
62790;SDS011;48830;53.426;10.300;2022-07-09T06:55:25;7.35;;;3.70;;
62790;SDS011;48830;53.426;10.300;2022-07-09T06:57:51;8.23;;;4.00;;
62790;SDS011;48830;53.426;10.300;2022-07-09T07:17:39;10.20;;;4.60;;
62790;SDS011;48830;53.426;10.300;2022-07-09T07:20:05;8.00;;;4.75;;
62790;SDS011;48830;53.426;10.300;2022-07-09T07:22:31;11.57;;;4.68;;
62790;SDS011;48830;53.426;10.300;2022-07-09T07:24:56;7.85;;;4.03;;
62790;SDS011;48830;53.426;10.300;2022-07-09T07:27:21;9.25;;;4.53;;
62790;SDS011;48830;53.426;10.300;2022-07-09T07:29:47;7.93;;;4.88;;
62790;SDS011;48830;53.426;10.300;2022-07-09T07:32:12;8.98;;;4.65;;
62790;SDS011;48830;53.426;10.300;2022-07-09T07:34:38;9.43;;;4.95;;
62790;SDS011;48830;53.426;10.300;2022-07-09T07:37:03;9.48;;;4.68;;
62790;SDS011;48830;53.426;10.300;2022-07-09T07:39:29;9.07;;;5.07;;
62790;SDS011;48830;53.426;10.300;2022-07-09T07:41:55;10.95;;;4.53;;
62790;SDS011;48830;53.426;10.300;2022-07-09T07:44:20;9.43;;;4.38;;
62790;SDS011;48830;53.426;10.300;2022-07-09T07:46:47;8.85;;;3.92;;
62790;SDS011;48830;53.426;10.300;2022-07-09T07:49:13;8.15;;;3.88;;
62790;SDS011;48830;53.426;10.300;2022-07-09T07:51:38;5.47;;;3.45;;
62790;SDS011;48830;53.426;10.300;2022-07-09T07:54:04;8.10;;;3.13;;
62790;SDS011;48830;53.426;10.300;2022-07-09T07:56:29;6.57;;;3.60;;
62790;SDS011;48830;53.426;10.300;2022-07-09T07:58:57;7.40;;;3.75;;
62790;SDS011;48830;53.426;10.300;2022-07-09T08:01:23;6.97;;;3.00;;
62790;SDS011;48830;53.426;10.300;2022-07-09T08:03:48;7.53;;;3.20;;
62790;SDS011;48830;53.426;10.300;2022-07-09T08:06:14;4.75;;;3.00;;
62790;SDS011;48830;53.426;10.300;2022-07-09T08:08:39;4.65;;;2.90;;
62790;SDS011;48830;53.426;10.300;2022-07-09T08:11:05;6.85;;;2.80;;
62790;SDS011;48830;53.426;10.300;2022-07-09T08:13:30;5.65;;;2.92;;
62790;SDS011;48830;53.426;10.300;2022-07-09T08:15:56;8.45;;;3.00;;
62790;SDS011;48830;53.426;10.300;2022-07-09T08:18:21;6.10;;;2.63;;
62790;SDS011;48830;53.426;10.300;2022-07-09T08:20:47;4.45;;;2.35;;
62790;SDS011;48830;53.426;10.300;2022-07-09T08:23:14;5.88;;;2.53;;
62790;SDS011;48830;53.426;10.300;2022-07-09T08:25:39;4.22;;;2.58;;
62790;SDS011;48830;53.426;10.300;2022-07-09T08:28:05;6.97;;;2.90;;
62790;SDS011;48830;53.426;10.300;2022-07-09T08:30:30;5.15;;;2.92;;
62790;SDS011;48830;53.426;10.300;2022-07-09T08:32:56;5.13;;;2.50;;
62790;SDS011;48830;53.426;10.300;2022-07-09T08:35:22;5.63;;;2.55;;
62790;SDS011;48830;53.426;10.300;2022-07-09T08:37:47;5.30;;;2.42;;
62790;SDS011;48830;53.426;10.300;2022-07-09T08:40:13;3.45;;;2.22;;
62790;SDS011;48830;53.426;10.300;2022-07-09T08:42:38;4.97;;;2.35;;
62790;SDS011;48830;53.426;10.300;2022-07-09T08:45:06;5.60;;;2.20;;
62790;SDS011;48830;53.426;10.300;2022-07-09T08:47:33;3.60;;;2.08;;
62790;SDS011;48830;53.426;10.300;2022-07-09T08:49:59;5.75;;;2.60;;
62790;SDS011;48830;53.426;10.300;2022-07-09T08:52:26;6.43;;;2.35;;
62790;SDS011;48830;53.426;10.300;2022-07-09T08:54:52;5.15;;;2.40;;
62790;SDS011;48830;53.426;10.300;2022-07-09T08:57:19;5.70;;;2.42;;
62790;SDS011;48830;53.426;10.300;2022-07-09T08:59:44;4.90;;;2.40;;
62790;SDS011;48830;53.426;10.300;2022-07-09T09:02:09;6.32;;;2.72;;
62790;SDS011;48830;53.426;10.300;2022-07-09T09:04:37;5.60;;;2.60;;
62790;SDS011;48830;53.426;10.300;2022-07-09T09:07:18;5.00;;;2.38;;
62790;SDS011;48830;53.426;10.300;2022-07-09T09:09:44;5.43;;;2.30;;
62790;SDS011;48830;53.426;10.300;2022-07-09T09:12:10;6.00;;;2.70;;
62790;SDS011;48830;53.426;10.300;2022-07-09T09:14:37;7.32;;;2.75;;
62790;SDS011;48830;53.426;10.300;2022-07-09T09:17:06;4.45;;;2.55;;
62790;SDS011;48830;53.426;10.300;2022-07-09T09:19:37;5.05;;;2.60;;
62790;SDS011;48830;53.426;10.300;2022-07-09T09:22:04;5.22;;;2.35;;
62790;SDS011;48830;53.426;10.300;2022-07-09T09:24:31;5.85;;;2.80;;
62790;SDS011;48830;53.426;10.300;2022-07-09T09:26:57;4.18;;;2.20;;
62790;SDS011;48830;53.426;10.300;2022-07-09T09:29:26;5.70;;;2.47;;
62790;SDS011;48830;53.426;10.300;2022-07-09T09:31:52;4.70;;;2.00;;
62790;SDS011;48830;53.426;10.300;2022-07-09T09:34:19;4.32;;;2.08;;
62790;SDS011;48830;53.426;10.300;2022-07-09T09:36:51;5.05;;;2.00;;
62790;SDS011;48830;53.426;10.300;2022-07-09T09:41:49;5.72;;;2.30;;
62790;SDS011;48830;53.426;10.300;2022-07-09T09:44:15;4.75;;;2.00;;
62790;SDS011;48830;53.426;10.300;2022-07-09T09:46:43;5.57;;;2.20;;
62790;SDS011;48830;53.426;10.300;2022-07-09T09:49:09;4.95;;;1.90;;
62790;SDS011;48830;53.426;10.300;2022-07-09T09:54:32;7.75;;;2.90;;
62790;SDS011;48830;53.426;10.300;2022-07-09T09:56:59;5.88;;;2.50;;
62790;SDS011;48830;53.426;10.300;2022-07-09T09:59:28;3.33;;;1.70;;
62790;SDS011;48830;53.426;10.300;2022-07-09T10:01:53;8.13;;;2.20;;
62790;SDS011;48830;53.426;10.300;2022-07-09T10:04:19;3.35;;;1.38;;
62790;SDS011;48830;53.426;10.300;2022-07-09T10:06:46;3.92;;;1.65;;
62790;SDS011;48830;53.426;10.300;2022-07-09T10:09:12;4.63;;;1.60;;
62790;SDS011;48830;53.426;10.300;2022-07-09T10:11:40;2.60;;;1.55;;
62790;SDS011;48830;53.426;10.300;2022-07-09T10:14:05;4.25;;;1.75;;
62790;SDS011;48830;53.426;10.300;2022-07-09T10:16:32;7.03;;;2.08;;
62790;SDS011;48830;53.426;10.300;2022-07-09T10:18:58;8.70;;;1.73;;
62790;SDS011;48830;53.426;10.300;2022-07-09T10:24:06;4.18;;;1.80;;
62790;SDS011;48830;53.426;10.300;2022-07-09T10:26:43;5.50;;;1.88;;
62790;SDS011;48830;53.426;10.300;2022-07-09T10:31:54;4.97;;;1.95;;
62790;SDS011;48830;53.426;10.300;2022-07-09T10:37:04;4.97;;;1.85;;
62790;SDS011;48830;53.426;10.300;2022-07-09T10:39:30;4.30;;;1.80;;
62790;SDS011;48830;53.426;10.300;2022-07-09T10:42:03;4.72;;;1.75;;
62790;SDS011;48830;53.426;10.300;2022-07-09T10:44:43;6.65;;;2.30;;
62790;SDS011;48830;53.426;10.300;2022-07-09T10:47:10;4.18;;;1.92;;
62790;SDS011;48830;53.426;10.300;2022-07-09T10:49:36;3.78;;;1.60;;
62790;SDS011;48830;53.426;10.300;2022-07-09T10:52:03;4.38;;;1.50;;
62790;SDS011;48830;53.426;10.300;2022-07-09T10:54:30;3.55;;;1.52;;
62790;SDS011;48830;53.426;10.300;2022-07-09T10:56:56;3.53;;;1.40;;
62790;SDS011;48830;53.426;10.300;2022-07-09T10:59:22;3.58;;;1.50;;
62790;SDS011;48830;53.426;10.300;2022-07-09T11:01:49;2.60;;;1.52;;
62790;SDS011;48830;53.426;10.300;2022-07-09T11:04:25;4.18;;;1.70;;
62790;SDS011;48830;53.426;10.300;2022-07-09T11:06:54;3.95;;;1.60;;
62790;SDS011;48830;53.426;10.300;2022-07-09T11:09:20;5.43;;;1.60;;
62790;SDS011;48830;53.426;10.300;2022-07-09T11:11:46;4.15;;;1.50;;
62790;SDS011;48830;53.426;10.300;2022-07-09T11:14:14;2.53;;;1.45;;
62790;SDS011;48830;53.426;10.300;2022-07-09T11:16:40;3.13;;;1.45;;
62790;SDS011;48830;53.426;10.300;2022-07-09T11:19:15;4.95;;;1.55;;
62790;SDS011;48830;53.426;10.300;2022-07-09T11:21:42;5.07;;;1.67;;
62790;SDS011;48830;53.426;10.300;2022-07-09T11:24:12;4.93;;;1.42;;
62790;SDS011;48830;53.426;10.300;2022-07-09T11:26:41;3.50;;;1.50;;
62790;SDS011;48830;53.426;10.300;2022-07-09T11:29:08;2.33;;;1.30;;
62790;SDS011;48830;53.426;10.300;2022-07-09T11:31:35;3.75;;;1.50;;
62790;SDS011;48830;53.426;10.300;2022-07-09T11:34:01;2.65;;;1.48;;
62790;SDS011;48830;53.426;10.300;2022-07-09T11:36:39;3.47;;;1.40;;
62790;SDS011;48830;53.426;10.300;2022-07-09T11:41:52;4.40;;;1.60;;
62790;SDS011;48830;53.426;10.300;2022-07-09T11:47:06;4.38;;;1.38;;
62790;SDS011;48830;53.426;10.300;2022-07-09T11:49:33;1.88;;;1.20;;
62790;SDS011;48830;53.426;10.300;2022-07-09T11:52:18;2.00;;;1.30;;
62790;SDS011;48830;53.426;10.300;2022-07-09T11:57:34;2.28;;;1.38;;
62790;SDS011;48830;53.426;10.300;2022-07-09T12:00:02;2.92;;;1.38;;
62790;SDS011;48830;53.426;10.300;2022-07-09T12:02:36;4.80;;;1.58;;
62790;SDS011;48830;53.426;10.300;2022-07-09T12:05:04;1.65;;;1.25;;
62790;SDS011;48830;53.426;10.300;2022-07-09T12:07:30;5.78;;;1.90;;
62790;SDS011;48830;53.426;10.300;2022-07-09T12:09:57;4.38;;;1.58;;
62790;SDS011;48830;53.426;10.300;2022-07-09T12:12:30;3.28;;;1.30;;
62790;SDS011;48830;53.426;10.300;2022-07-09T12:14:56;2.30;;;1.40;;
62790;SDS011;48830;53.426;10.300;2022-07-09T12:17:25;3.13;;;1.35;;
62790;SDS011;48830;53.426;10.300;2022-07-09T12:19:53;2.70;;;1.60;;
62790;SDS011;48830;53.426;10.300;2022-07-09T12:22:19;5.35;;;1.50;;
62790;SDS011;48830;53.426;10.300;2022-07-09T12:24:45;4.82;;;1.63;;
62790;SDS011;48830;53.426;10.300;2022-07-09T12:27:11;4.05;;;1.50;;
62790;SDS011;48830;53.426;10.300;2022-07-09T12:29:36;3.08;;;1.30;;
62790;SDS011;48830;53.426;10.300;2022-07-09T12:32:02;3.75;;;1.30;;
62790;SDS011;48830;53.426;10.300;2022-07-09T12:34:28;3.85;;;1.38;;
62790;SDS011;48830;53.426;10.300;2022-07-09T12:36:54;4.90;;;1.33;;
62790;SDS011;48830;53.426;10.300;2022-07-09T12:39:20;2.63;;;1.35;;
62790;SDS011;48830;53.426;10.300;2022-07-09T12:41:45;1.27;;;1.02;;
62790;SDS011;48830;53.426;10.300;2022-07-09T12:44:11;3.35;;;1.38;;
62790;SDS011;48830;53.426;10.300;2022-07-09T12:46:36;3.75;;;1.42;;
62790;SDS011;48830;53.426;10.300;2022-07-09T12:49:02;3.60;;;1.38;;
62790;SDS011;48830;53.426;10.300;2022-07-09T12:51:27;4.93;;;1.35;;
62790;SDS011;48830;53.426;10.300;2022-07-09T12:53:53;2.65;;;1.50;;
62790;SDS011;48830;53.426;10.300;2022-07-09T12:56:18;4.28;;;2.15;;
62790;SDS011;48830;53.426;10.300;2022-07-09T12:58:44;4.43;;;1.90;;
62790;SDS011;48830;53.426;10.300;2022-07-09T13:01:09;3.47;;;1.70;;
62790;SDS011;48830;53.426;10.300;2022-07-09T13:03:35;4.00;;;1.33;;
62790;SDS011;48830;53.426;10.300;2022-07-09T13:06:00;5.63;;;1.60;;
62790;SDS011;48830;53.426;10.300;2022-07-09T13:08:26;2.92;;;1.30;;
62790;SDS011;48830;53.426;10.300;2022-07-09T13:10:52;5.15;;;1.65;;
62790;SDS011;48830;53.426;10.300;2022-07-09T13:13:17;3.95;;;1.60;;
62790;SDS011;48830;53.426;10.300;2022-07-09T13:15:43;3.35;;;1.30;;
62790;SDS011;48830;53.426;10.300;2022-07-09T13:18:09;6.68;;;1.75;;
62790;SDS011;48830;53.426;10.300;2022-07-09T13:20:34;6.32;;;1.73;;
62790;SDS011;48830;53.426;10.300;2022-07-09T13:22:59;3.40;;;1.55;;
62790;SDS011;48830;53.426;10.300;2022-07-09T13:25:25;5.72;;;2.10;;
62790;SDS011;48830;53.426;10.300;2022-07-09T13:27:50;4.28;;;1.58;;
62790;SDS011;48830;53.426;10.300;2022-07-09T13:30:16;5.47;;;1.67;;
62790;SDS011;48830;53.426;10.300;2022-07-09T13:32:46;5.35;;;1.63;;
62790;SDS011;48830;53.426;10.300;2022-07-09T13:35:12;7.97;;;1.80;;
62790;SDS011;48830;53.426;10.300;2022-07-09T13:37:37;4.43;;;1.52;;
62790;SDS011;48830;53.426;10.300;2022-07-09T13:40:04;6.25;;;2.50;;
62790;SDS011;48830;53.426;10.300;2022-07-09T13:42:29;3.25;;;1.50;;
62790;SDS011;48830;53.426;10.300;2022-07-09T13:44:55;4.03;;;1.90;;
62790;SDS011;48830;53.426;10.300;2022-07-09T13:47:20;4.10;;;1.52;;
62790;SDS011;48830;53.426;10.300;2022-07-09T13:49:46;7.88;;;1.80;;
62790;SDS011;48830;53.426;10.300;2022-07-09T13:52:11;5.75;;;1.80;;
62790;SDS011;48830;53.426;10.300;2022-07-09T13:54:37;5.82;;;1.63;;
62790;SDS011;48830;53.426;10.300;2022-07-09T13:57:02;3.90;;;1.60;;
62790;SDS011;48830;53.426;10.300;2022-07-09T13:59:28;4.50;;;1.63;;
62790;SDS011;48830;53.426;10.300;2022-07-09T14:01:54;4.82;;;1.52;;
62790;SDS011;48830;53.426;10.300;2022-07-09T14:04:19;7.07;;;1.80;;
62790;SDS011;48830;53.426;10.300;2022-07-09T14:06:44;3.20;;;1.40;;
62790;SDS011;48830;53.426;10.300;2022-07-09T14:09:10;5.93;;;1.58;;
62790;SDS011;48830;53.426;10.300;2022-07-09T14:11:36;5.32;;;1.50;;
62790;SDS011;48830;53.426;10.300;2022-07-09T14:14:01;3.13;;;1.70;;
62790;SDS011;48830;53.426;10.300;2022-07-09T14:16:27;5.30;;;1.70;;
62790;SDS011;48830;53.426;10.300;2022-07-09T14:18:52;6.65;;;1.90;;
62790;SDS011;48830;53.426;10.300;2022-07-09T14:21:19;7.85;;;1.63;;
62790;SDS011;48830;53.426;10.300;2022-07-09T14:23:45;4.30;;;1.40;;
62790;SDS011;48830;53.426;10.300;2022-07-09T14:26:16;4.07;;;1.42;;
62790;SDS011;48830;53.426;10.300;2022-07-09T14:28:42;4.78;;;1.50;;
62790;SDS011;48830;53.426;10.300;2022-07-09T14:31:08;6.22;;;1.73;;
62790;SDS011;48830;53.426;10.300;2022-07-09T14:33:33;5.28;;;1.70;;
62790;SDS011;48830;53.426;10.300;2022-07-09T14:35:59;3.75;;;1.50;;
62790;SDS011;48830;53.426;10.300;2022-07-09T14:38:24;5.20;;;1.88;;
62790;SDS011;48830;53.426;10.300;2022-07-09T14:40:50;5.65;;;1.60;;
62790;SDS011;48830;53.426;10.300;2022-07-09T14:43:15;4.57;;;1.70;;
62790;SDS011;48830;53.426;10.300;2022-07-09T14:45:41;7.03;;;1.70;;
62790;SDS011;48830;53.426;10.300;2022-07-09T14:48:06;6.78;;;1.73;;
62790;SDS011;48830;53.426;10.300;2022-07-09T14:50:34;5.63;;;1.60;;
62790;SDS011;48830;53.426;10.300;2022-07-09T14:53:00;5.78;;;1.77;;
62790;SDS011;48830;53.426;10.300;2022-07-09T14:55:27;6.28;;;1.70;;
62790;SDS011;48830;53.426;10.300;2022-07-09T14:57:53;2.20;;;1.20;;
62790;SDS011;48830;53.426;10.300;2022-07-09T15:00:19;6.43;;;1.67;;
62790;SDS011;48830;53.426;10.300;2022-07-09T15:02:45;7.47;;;1.70;;
62790;SDS011;48830;53.426;10.300;2022-07-09T15:05:11;4.65;;;1.73;;